createdAt,value
2022-10-20T00:02:24.720Z,6.73
2022-10-20T00:04:53.298Z,4.03
2022-10-20T00:07:20.175Z,3.70
2022-10-20T00:09:47.389Z,3.00
2022-10-20T00:12:14.299Z,2.97
2022-10-20T00:14:41.620Z,3.07
2022-10-20T00:17:08.571Z,3.20
2022-10-20T00:19:35.925Z,3.07
2022-10-20T00:22:04.689Z,3.13
2022-10-20T00:24:31.931Z,3.30
2022-10-20T00:26:58.977Z,3.40
2022-10-20T00:29:26.297Z,3.37
2022-10-20T00:31:53.139Z,3.43
2022-10-20T00:34:20.374Z,3.10
2022-10-20T00:36:50.414Z,3.10
2022-10-20T00:39:21.085Z,3.20
2022-10-20T00:41:48.145Z,2.93
2022-10-20T00:44:49.214Z,2.90
2022-10-20T00:47:19.662Z,3.73
2022-10-20T00:49:48.417Z,2.90
2022-10-20T00:52:18.573Z,2.80
2022-10-20T00:54:47.821Z,2.77
2022-10-20T00:57:14.786Z,3.33
2022-10-20T00:59:42.246Z,3.10
2022-10-20T01:02:10.338Z,2.83
2022-10-20T01:04:38.274Z,6.37
2022-10-20T01:07:06.070Z,3.27
2022-10-20T01:09:33.708Z,3.23
2022-10-20T01:12:13.231Z,3.20
2022-10-20T01:14:53.812Z,6.93
2022-10-20T01:17:29.308Z,3.90
2022-10-20T01:20:50.777Z,3.80
2022-10-20T01:23:52.118Z,3.30
2022-10-20T01:26:38.876Z,3.30
2022-10-20T01:29:15.101Z,2.70
2022-10-20T01:31:49.135Z,2.73
2022-10-20T01:34:22.229Z,2.80
2022-10-20T01:36:54.707Z,2.80
2022-10-20T01:39:29.892Z,2.63
2022-10-20T01:42:02.207Z,3.00
2022-10-20T01:44:35.091Z,2.80
2022-10-20T01:47:36.971Z,2.90
2022-10-20T01:50:07.694Z,2.90
2022-10-20T01:52:34.962Z,3.17
2022-10-20T01:55:02.466Z,2.90
2022-10-20T01:57:41.209Z,3.33
2022-10-20T02:00:11.792Z,3.13
2022-10-20T02:03:08.765Z,3.13
2022-10-20T02:05:50.517Z,3.13
2022-10-20T02:08:26.756Z,4.13
2022-10-20T02:10:58.819Z,3.50
2022-10-20T02:13:28.442Z,3.40
2022-10-20T02:16:00.814Z,4.20
2022-10-20T02:18:31.353Z,3.30
2022-10-20T02:21:01.242Z,3.30
2022-10-20T02:23:35.039Z,3.37
2022-10-20T02:26:07.325Z,4.13
2022-10-20T02:28:36.070Z,4.10
2022-10-20T02:31:05.143Z,4.37
2022-10-20T02:33:33.760Z,3.70
2022-10-20T02:36:04.297Z,3.80
2022-10-20T02:38:31.542Z,4.40
2022-10-20T02:40:58.769Z,4.37
2022-10-20T02:43:25.630Z,3.90
2022-10-20T02:45:52.796Z,4.67
2022-10-20T02:48:20.940Z,5.40
2022-10-20T02:50:48.051Z,7.27
2022-10-20T02:53:14.986Z,4.17
2022-10-20T02:55:42.442Z,4.20
2022-10-20T02:58:09.776Z,4.53
2022-10-20T03:00:36.946Z,4.60
2022-10-20T03:03:03.862Z,4.30
2022-10-20T03:05:32.547Z,4.40
2022-10-20T03:07:59.445Z,4.70
2022-10-20T03:10:26.667Z,3.77
2022-10-20T03:12:53.444Z,4.07
2022-10-20T03:15:20.712Z,3.90
2022-10-20T03:17:47.506Z,4.07
2022-10-20T03:20:14.659Z,4.20
2022-10-20T03:22:42.785Z,4.40
2022-10-20T03:25:10.170Z,4.20
2022-10-20T03:27:37.283Z,3.70
2022-10-20T03:30:05.406Z,3.70
2022-10-20T03:32:32.836Z,4.20
2022-10-20T03:35:00.222Z,4.00
2022-10-20T03:37:27.074Z,3.93
2022-10-20T03:39:55.627Z,3.73
2022-10-20T03:42:22.528Z,3.90
2022-10-20T03:44:49.693Z,3.90
2022-10-20T03:47:16.557Z,3.57
2022-10-20T03:49:43.919Z,3.77
2022-10-20T03:52:10.724Z,3.50
2022-10-20T03:54:38.274Z,3.83
2022-10-20T03:57:07.838Z,3.70
2022-10-20T03:59:35.163Z,3.60
2022-10-20T04:02:02.127Z,3.70
2022-10-20T04:04:29.370Z,3.30
2022-10-20T04:06:56.366Z,3.73
2022-10-20T04:09:23.580Z,3.70
2022-10-20T04:11:50.449Z,3.80
2022-10-20T04:14:19.673Z,4.07
2022-10-20T04:16:46.533Z,3.43
2022-10-20T04:19:13.948Z,4.00
2022-10-20T04:21:40.913Z,3.67
2022-10-20T04:24:08.277Z,3.67
2022-10-20T04:26:35.195Z,3.93
2022-10-20T04:29:02.778Z,3.00
2022-10-20T04:31:30.993Z,3.27
2022-10-20T04:33:58.322Z,3.30
2022-10-20T04:36:25.830Z,3.00
2022-10-20T04:38:53.078Z,2.80
2022-10-20T04:41:20.023Z,3.17
2022-10-20T04:43:51.577Z,3.30
2022-10-20T04:46:18.932Z,3.10
2022-10-20T04:48:47.542Z,3.00
2022-10-20T04:51:15.993Z,3.20
2022-10-20T04:53:42.842Z,3.13
2022-10-20T04:56:13.846Z,3.07
2022-10-20T04:58:41.031Z,3.00
2022-10-20T05:01:10.062Z,2.97
2022-10-20T05:03:37.800Z,3.30
2022-10-20T05:06:11.205Z,2.83
2022-10-20T05:08:39.231Z,3.50
2022-10-20T05:11:06.620Z,3.50
2022-10-20T05:13:33.844Z,3.37
2022-10-20T05:16:00.742Z,3.53
2022-10-20T05:18:28.701Z,3.13
2022-10-20T05:21:08.433Z,3.43
2022-10-20T05:23:38.661Z,3.40
2022-10-20T05:26:07.123Z,3.80
2022-10-20T05:28:34.591Z,3.60
2022-10-20T05:31:02.874Z,3.80
2022-10-20T05:33:30.279Z,3.90
2022-10-20T05:35:57.224Z,3.83
2022-10-20T05:38:24.189Z,4.33
2022-10-20T05:40:52.406Z,3.90
2022-10-20T05:43:19.707Z,4.30
2022-10-20T05:45:46.533Z,4.07
2022-10-20T05:48:13.415Z,4.37
2022-10-20T05:50:40.319Z,4.70
2022-10-20T05:53:07.510Z,4.70
2022-10-20T05:55:34.705Z,5.53
2022-10-20T05:58:03.042Z,5.00
2022-10-20T06:00:31.425Z,5.23
2022-10-20T06:02:58.879Z,4.93
2022-10-20T06:05:25.697Z,4.80
2022-10-20T06:07:54.781Z,4.90
2022-10-20T06:10:21.739Z,5.13
2022-10-20T06:12:48.616Z,5.33
2022-10-20T06:15:17.002Z,5.63
2022-10-20T06:17:47.193Z,5.40
2022-10-20T06:20:14.149Z,5.53
2022-10-20T06:22:41.449Z,5.40
2022-10-20T06:25:09.068Z,5.60
2022-10-20T06:27:36.323Z,5.53
2022-10-20T06:30:03.311Z,5.80
2022-10-20T06:32:32.136Z,6.00
2022-10-20T06:34:58.995Z,5.73
2022-10-20T06:37:25.850Z,5.40
2022-10-20T06:39:52.698Z,5.43
2022-10-20T06:42:19.880Z,4.70
2022-10-20T06:44:46.771Z,5.60
2022-10-20T06:47:13.972Z,5.60
2022-10-20T06:49:42.186Z,6.17
2022-10-20T06:54:41.300Z,6.17
2022-10-20T06:57:08.492Z,5.60
2022-10-20T06:59:35.375Z,6.30
2022-10-20T07:02:02.643Z,6.00
2022-10-20T07:04:29.639Z,6.23
2022-10-20T07:06:58.400Z,6.70
2022-10-20T07:09:25.316Z,7.07
2022-10-20T07:11:52.876Z,6.87
2022-10-20T07:14:20.638Z,6.50
2022-10-20T07:16:47.869Z,7.37
2022-10-20T07:19:14.836Z,7.50
2022-10-20T07:21:45.639Z,8.50
2022-10-20T07:24:15.351Z,10.07
2022-10-20T07:26:42.959Z,7.43
2022-10-20T07:29:11.045Z,7.37
2022-10-20T07:31:39.784Z,7.50
2022-10-20T07:34:26.661Z,7.33
2022-10-20T07:36:56.584Z,7.40
2022-10-20T07:39:25.795Z,7.40
2022-10-20T07:41:53.311Z,7.30
2022-10-20T07:44:20.466Z,7.23
2022-10-20T07:46:47.868Z,7.27
2022-10-20T07:52:02.710Z,7.30
2022-10-20T07:54:31.771Z,6.63
2022-10-20T07:56:59.196Z,7.47
2022-10-20T07:59:26.146Z,6.77
2022-10-20T08:01:56.091Z,7.10
2022-10-20T08:04:24.343Z,7.33
2022-10-20T08:06:51.260Z,7.20
2022-10-20T08:09:19.069Z,6.50
2022-10-20T08:11:50.364Z,6.57
2022-10-20T08:14:20.214Z,7.10
2022-10-20T08:16:51.062Z,7.13
2022-10-20T08:21:59.713Z,6.57
2022-10-20T08:24:26.807Z,6.70
2022-10-20T08:26:55.221Z,6.37
2022-10-20T08:29:23.020Z,6.43
2022-10-20T08:31:50.090Z,6.67
2022-10-20T08:34:17.390Z,6.10
2022-10-20T08:36:44.508Z,6.27
2022-10-20T08:39:11.684Z,5.90
2022-10-20T08:42:06.527Z,6.23
2022-10-20T08:44:34.694Z,5.83
2022-10-20T08:47:04.037Z,8.17
2022-10-20T08:49:33.640Z,9.10
2022-10-20T08:52:01.068Z,8.57
2022-10-20T08:54:28.412Z,7.60
2022-10-20T08:56:55.386Z,7.10
2022-10-20T08:59:29.475Z,6.40
2022-10-20T09:01:58.043Z,6.80
2022-10-20T09:04:27.980Z,6.80
2022-10-20T09:07:00.162Z,6.63
2022-10-20T09:09:31.047Z,6.97
2022-10-20T09:12:04.687Z,6.50
2022-10-20T09:14:35.683Z,6.73
2022-10-20T09:17:09.140Z,7.07
2022-10-20T09:19:39.055Z,7.00
2022-10-20T09:22:07.663Z,6.90
2022-10-20T09:24:36.766Z,7.07
2022-10-20T09:27:20.251Z,7.37
2022-10-20T09:29:47.206Z,7.40
2022-10-20T09:32:45.488Z,6.83
2022-10-20T09:35:20.979Z,7.63
2022-10-20T09:38:06.615Z,7.20
2022-10-20T09:40:33.708Z,6.67
2022-10-20T09:43:07.917Z,6.83
2022-10-20T09:45:37.234Z,7.47
2022-10-20T09:48:17.802Z,7.53
2022-10-20T09:50:49.658Z,7.50
2022-10-20T09:53:20.290Z,6.57
2022-10-20T09:55:49.944Z,8.20
2022-10-20T09:58:23.377Z,7.30
2022-10-20T10:00:57.675Z,6.93
2022-10-20T10:03:26.600Z,7.03
2022-10-20T10:05:54.778Z,6.30
2022-10-20T10:08:23.491Z,6.60
2022-10-20T10:11:02.074Z,6.87
2022-10-20T10:13:32.455Z,6.37
2022-10-20T10:16:06.274Z,6.40
2022-10-20T10:18:36.276Z,7.30
2022-10-20T10:21:05.955Z,6.47
2022-10-20T10:23:36.999Z,6.67
2022-10-20T10:26:22.755Z,6.87
2022-10-20T10:28:58.803Z,6.70
2022-10-20T10:31:25.783Z,6.23
2022-10-20T10:34:22.871Z,6.87
2022-10-20T10:36:49.868Z,6.90
2022-10-20T10:39:16.842Z,6.83
2022-10-20T10:42:03.679Z,6.80
2022-10-20T10:44:42.125Z,7.53
2022-10-20T10:47:24.659Z,6.80
2022-10-20T10:50:03.131Z,7.23
2022-10-20T10:52:46.039Z,7.10
2022-10-20T10:55:47.158Z,6.20
2022-10-20T10:58:27.335Z,5.93
2022-10-20T11:01:02.582Z,6.87
2022-10-20T11:03:48.570Z,5.50
2022-10-20T11:06:25.208Z,5.17
2022-10-20T11:09:12.971Z,5.20
2022-10-20T11:11:51.245Z,5.37
2022-10-20T11:14:31.224Z,5.33
2022-10-20T11:17:08.487Z,4.77
2022-10-20T11:20:03.412Z,4.50
2022-10-20T11:22:40.875Z,4.57
2022-10-20T11:25:16.830Z,4.50
2022-10-20T11:27:44.276Z,4.40
2022-10-20T11:30:17.125Z,4.13
2022-10-20T11:32:50.625Z,3.80
2022-10-20T11:35:27.986Z,4.47
2022-10-20T11:38:11.432Z,4.60
2022-10-20T11:40:40.648Z,4.33
2022-10-20T11:43:16.359Z,4.33
2022-10-20T11:45:50.209Z,3.30
2022-10-20T11:48:25.529Z,3.00
2022-10-20T11:51:10.124Z,2.80
2022-10-20T11:53:57.221Z,2.80
2022-10-20T11:56:51.506Z,3.10
2022-10-20T11:59:52.545Z,2.63
2022-10-20T12:02:59.706Z,2.90
2022-10-20T12:05:56.345Z,2.30
2022-10-20T12:08:43.797Z,2.20
2022-10-20T12:11:18.033Z,2.23
2022-10-20T12:13:57.334Z,2.17
2022-10-20T12:17:13.012Z,2.53
2022-10-20T12:19:40.098Z,2.27
2022-10-20T12:22:35.065Z,2.20
2022-10-20T12:25:19.250Z,1.63
2022-10-20T12:28:07.832Z,1.97
2022-10-20T12:30:44.448Z,1.70
2022-10-20T12:33:19.997Z,2.00
2022-10-20T12:36:23.690Z,2.27
2022-10-20T12:38:54.339Z,3.87
2022-10-20T12:41:27.844Z,2.23
2022-10-20T12:43:59.197Z,2.23
2022-10-20T12:46:31.348Z,2.30
2022-10-20T12:49:03.899Z,2.50
2022-10-20T12:51:36.123Z,2.43
2022-10-20T12:54:08.588Z,2.50
2022-10-20T12:56:39.615Z,2.80
2022-10-20T12:59:39.781Z,3.00
2022-10-20T13:02:32.842Z,2.53
2022-10-20T13:05:02.572Z,3.00
2022-10-20T13:08:04.606Z,3.37
2022-10-20T13:10:36.328Z,3.57
2022-10-20T13:13:49.353Z,3.50
2022-10-20T13:16:20.890Z,3.77
2022-10-20T13:18:51.590Z,3.63
2022-10-20T13:21:26.712Z,3.77
2022-10-20T13:24:00.646Z,3.53
2022-10-20T13:26:30.493Z,3.90
2022-10-20T13:28:59.820Z,4.27
2022-10-20T13:31:31.624Z,6.07
2022-10-20T13:34:07.500Z,4.70
2022-10-20T13:36:55.617Z,4.00
2022-10-20T13:39:31.253Z,3.47
2022-10-20T13:42:07.554Z,4.03
2022-10-20T13:44:44.239Z,4.57
2022-10-20T13:47:37.436Z,4.60
2022-10-20T13:50:12.421Z,4.37
2022-10-20T13:52:44.300Z,4.80
2022-10-20T13:55:17.511Z,5.07
2022-10-20T13:57:55.458Z,5.10
2022-10-20T14:00:25.607Z,5.37
2022-10-20T14:02:56.120Z,6.00
2022-10-20T14:05:25.420Z,5.57
2022-10-20T14:07:53.518Z,5.23
2022-10-20T14:10:23.008Z,5.70
2022-10-20T14:12:50.642Z,5.30
2022-10-20T14:15:23.787Z,5.27
2022-10-20T14:17:59.992Z,5.47
2022-10-20T14:20:29.296Z,5.60
2022-10-20T14:22:58.531Z,5.47
2022-10-20T14:25:26.654Z,5.40
2022-10-20T14:27:54.858Z,5.30
2022-10-20T14:30:22.578Z,5.60
2022-10-20T14:32:50.967Z,5.67
2022-10-20T14:35:33.017Z,5.83
2022-10-20T14:38:03.748Z,8.10
2022-10-20T14:40:33.808Z,8.87
2022-10-20T14:43:03.514Z,6.90
2022-10-20T14:48:03.188Z,5.83
2022-10-20T14:50:37.086Z,5.70
2022-10-20T14:53:18.436Z,5.57
2022-10-20T14:55:45.899Z,5.67
2022-10-20T14:58:37.389Z,6.17
2022-10-20T15:01:24.739Z,5.83
2022-10-20T15:04:06.617Z,6.80
2022-10-20T15:06:35.261Z,5.90
2022-10-20T15:09:03.955Z,5.67
2022-10-20T15:11:32.240Z,5.43
2022-10-20T15:14:01.232Z,5.70
2022-10-20T15:16:34.764Z,5.00
2022-10-20T15:19:29.675Z,5.43
2022-10-20T15:22:09.365Z,5.77
2022-10-20T15:24:37.434Z,5.57
2022-10-20T15:27:05.216Z,5.53
2022-10-20T15:29:33.416Z,4.90
2022-10-20T15:32:00.366Z,5.47
2022-10-20T15:34:27.654Z,4.70
2022-10-20T15:36:55.266Z,5.00
2022-10-20T15:39:23.801Z,5.13
2022-10-20T15:41:53.762Z,5.37
2022-10-20T15:44:22.580Z,5.77
2022-10-20T15:46:53.362Z,5.57
2022-10-20T15:49:20.876Z,5.80
2022-10-20T15:51:48.351Z,5.77
2022-10-20T15:54:17.722Z,5.80
2022-10-20T15:56:46.209Z,6.13
2022-10-20T15:59:13.715Z,5.63
2022-10-20T16:01:40.768Z,5.70
2022-10-20T16:04:17.501Z,5.80
2022-10-20T16:06:44.861Z,5.30
2022-10-20T16:09:15.795Z,5.93
2022-10-20T16:11:44.942Z,6.07
2022-10-20T16:14:12.316Z,5.60
2022-10-20T16:16:39.542Z,5.87
2022-10-20T16:19:06.724Z,6.43
2022-10-20T16:21:33.980Z,6.53
2022-10-20T16:24:04.256Z,6.47
2022-10-20T16:26:31.233Z,6.20
2022-10-20T16:28:59.978Z,6.17
2022-10-20T16:31:26.938Z,5.83
2022-10-20T16:33:54.323Z,5.33
2022-10-20T16:36:21.786Z,5.20
2022-10-20T16:38:54.191Z,5.37
2022-10-20T16:41:21.156Z,5.70
2022-10-20T16:43:48.493Z,5.90
2022-10-20T16:46:16.811Z,5.47
2022-10-20T16:48:47.549Z,5.67
2022-10-20T16:51:18.015Z,5.90
2022-10-20T16:53:45.449Z,5.50
2022-10-20T16:56:15.396Z,5.53
2022-10-20T16:58:45.363Z,5.80
2022-10-20T17:01:15.736Z,5.53
2022-10-20T17:03:46.392Z,6.63
2022-10-20T17:06:14.594Z,7.00
2022-10-20T17:08:41.651Z,6.77
2022-10-20T17:11:10.682Z,17.57
2022-10-20T17:13:39.457Z,7.43
2022-10-20T17:16:08.414Z,6.83
2022-10-20T17:18:36.216Z,8.23
2022-10-20T17:21:05.020Z,7.50
2022-10-20T17:23:36.259Z,16.13
2022-10-20T17:26:07.229Z,7.70
2022-10-20T17:28:36.631Z,8.00
2022-10-20T17:31:06.743Z,8.00
2022-10-20T17:33:33.899Z,6.97
2022-10-20T17:36:01.411Z,7.20
2022-10-20T17:38:30.274Z,6.30
2022-10-20T17:41:02.816Z,7.73
2022-10-20T17:43:29.874Z,7.43
2022-10-20T17:45:57.372Z,8.07
2022-10-20T17:48:24.478Z,8.23
2022-10-20T17:50:59.355Z,8.30
2022-10-20T17:53:26.376Z,13.57
2022-10-20T17:55:54.770Z,8.90
2022-10-20T17:58:21.988Z,10.73
2022-10-20T18:00:56.502Z,9.40
2022-10-20T18:03:24.416Z,8.57
2022-10-20T18:05:51.420Z,8.07
2022-10-20T18:08:18.674Z,9.60
2022-10-20T18:10:45.550Z,8.97
2022-10-20T18:13:14.226Z,8.57
2022-10-20T18:15:44.260Z,8.50
2022-10-20T18:18:11.558Z,9.77
2022-10-20T18:20:38.466Z,10.50
2022-10-20T18:23:05.707Z,9.87
2022-10-20T18:25:34.975Z,9.77
2022-10-20T18:28:02.312Z,9.93
2022-10-20T18:30:30.487Z,10.03
2022-10-20T18:32:57.672Z,12.20
2022-10-20T18:35:24.753Z,12.17
2022-10-20T18:37:57.741Z,12.70
2022-10-20T18:40:24.815Z,13.27
2022-10-20T18:42:51.966Z,11.57
2022-10-20T18:45:21.359Z,11.77
2022-10-20T18:47:52.059Z,13.00
2022-10-20T18:50:19.087Z,15.40
2022-10-20T18:52:45.885Z,15.03
2022-10-20T18:55:13.260Z,13.17
2022-10-20T18:57:40.303Z,15.33
2022-10-20T19:00:09.102Z,16.13
2022-10-20T19:02:36.246Z,13.53
2022-10-20T19:05:05.284Z,15.57
2022-10-20T19:07:32.953Z,17.23
2022-10-20T19:10:01.048Z,19.73
2022-10-20T19:12:28.063Z,19.23
2022-10-20T19:14:54.919Z,18.47
2022-10-20T19:17:21.868Z,14.77
2022-10-20T19:19:48.873Z,13.40
2022-10-20T19:22:17.411Z,12.17
2022-10-20T19:24:44.423Z,11.47
2022-10-20T19:27:26.221Z,9.87
2022-10-20T19:29:56.166Z,10.67
2022-10-20T19:32:23.101Z,9.67
2022-10-20T19:34:50.452Z,10.53
2022-10-20T19:37:18.779Z,10.03
2022-10-20T19:39:45.916Z,10.20
2022-10-20T19:42:13.650Z,9.93
2022-10-20T19:44:40.914Z,9.97
2022-10-20T19:47:08.248Z,10.63
2022-10-20T19:49:35.615Z,10.70
2022-10-20T19:52:03.126Z,10.90
2022-10-20T19:54:31.866Z,10.50
2022-10-20T19:56:59.009Z,10.97
2022-10-20T19:59:26.295Z,10.47
2022-10-20T20:01:53.191Z,11.03
2022-10-20T20:04:20.728Z,11.03
2022-10-20T20:06:48.052Z,11.70
2022-10-20T20:09:17.912Z,11.70
2022-10-20T20:11:46.197Z,11.07
2022-10-20T20:14:15.499Z,10.73
2022-10-20T20:19:16.752Z,13.37
2022-10-20T20:21:44.080Z,12.83
2022-10-20T20:24:13.600Z,17.17
2022-10-20T20:26:40.738Z,11.70
2022-10-20T20:29:09.878Z,11.83
2022-10-20T20:31:36.815Z,11.57
2022-10-20T20:34:03.741Z,11.17
2022-10-20T20:36:30.667Z,11.73
2022-10-20T20:38:59.468Z,11.47
2022-10-20T20:41:28.088Z,11.90
2022-10-20T20:43:55.576Z,12.97
2022-10-20T20:46:27.480Z,12.27
2022-10-20T20:48:54.712Z,12.00
2022-10-20T20:51:21.645Z,10.57
2022-10-20T20:53:48.642Z,12.20
2022-10-20T20:56:19.587Z,13.80
2022-10-20T20:58:49.284Z,11.63
2022-10-20T21:01:18.174Z,10.77
2022-10-20T21:03:47.012Z,10.37
2022-10-20T21:06:15.772Z,10.83
2022-10-20T21:08:44.643Z,11.03
2022-10-20T21:11:13.564Z,11.43
2022-10-20T21:13:41.937Z,10.90
2022-10-20T21:16:11.203Z,11.30
2022-10-20T21:18:38.464Z,11.60
2022-10-20T21:21:13.049Z,11.87
2022-10-20T21:23:40.454Z,11.40
2022-10-20T21:26:08.309Z,11.07
2022-10-20T21:28:35.805Z,11.00
2022-10-20T21:31:04.734Z,10.67
2022-10-20T21:33:31.697Z,10.47
2022-10-20T21:36:01.975Z,10.63
2022-10-20T21:38:31.955Z,10.80
2022-10-20T21:41:03.512Z,10.17
2022-10-20T21:43:31.195Z,9.90
2022-10-20T21:46:12.177Z,10.57
2022-10-20T21:48:39.869Z,10.40
2022-10-20T21:51:09.357Z,9.87
2022-10-20T21:53:37.901Z,9.20
2022-10-20T21:56:05.611Z,9.93
2022-10-20T21:58:33.429Z,10.00
2022-10-20T22:01:00.924Z,10.03
2022-10-20T22:03:27.903Z,9.80
2022-10-20T22:05:54.948Z,10.27
2022-10-20T22:08:21.818Z,10.20
2022-10-20T22:10:50.081Z,10.77
2022-10-20T22:13:16.946Z,11.23
2022-10-20T22:15:44.208Z,14.20
2022-10-20T22:18:11.032Z,18.57
2022-10-20T22:20:38.723Z,16.13
2022-10-20T22:23:08.667Z,11.43
2022-10-20T22:25:37.703Z,10.30
2022-10-20T22:28:06.455Z,10.10
2022-10-20T22:30:34.378Z,10.63
2022-10-20T22:33:01.483Z,10.33
2022-10-20T22:35:28.964Z,11.00
2022-10-20T22:37:55.978Z,11.40
2022-10-20T22:40:23.328Z,10.40
2022-10-20T22:42:50.310Z,10.00
2022-10-20T22:45:18.737Z,10.63
2022-10-20T22:47:45.615Z,10.60
2022-10-20T22:50:13.201Z,11.83
2022-10-20T22:52:40.341Z,10.50
2022-10-20T22:55:08.211Z,10.87
2022-10-20T22:57:35.361Z,10.97
2022-10-20T23:00:02.372Z,10.87
2022-10-20T23:02:30.513Z,11.37
2022-10-20T23:04:57.517Z,11.23
2022-10-20T23:07:24.414Z,11.47
2022-10-20T23:09:51.474Z,10.80
2022-10-20T23:12:18.381Z,10.53
2022-10-20T23:14:45.365Z,10.80
2022-10-20T23:17:12.259Z,10.43
2022-10-20T23:19:40.860Z,11.27
2022-10-20T23:22:07.903Z,11.57
2022-10-20T23:24:35.520Z,11.30
2022-10-20T23:27:02.460Z,11.73
2022-10-20T23:29:29.458Z,11.90
2022-10-20T23:31:56.407Z,12.17
2022-10-20T23:34:24.164Z,12.10
2022-10-20T23:36:52.447Z,15.90
2022-10-20T23:39:19.308Z,12.33
2022-10-20T23:41:46.247Z,11.60
2022-10-20T23:44:13.669Z,12.17
2022-10-20T23:46:40.657Z,12.13
2022-10-20T23:49:07.923Z,12.10
2022-10-20T23:51:34.821Z,11.80
2022-10-20T23:54:03.539Z,12.30
2022-10-20T23:56:30.502Z,11.73
2022-10-20T23:58:57.688Z,12.07
